Terminal Aerodrome Forecast
Issued by NWS

Home | Current Version | Previous Version | Graphics & Text | Print | Product List | Glossary On
Versions: 1 2 3 4 5 6 7 8 9 10 11 12
000
FTUS43 KMPX 302338
TAFAXN
TAF
KAXN 302338Z 3100/3124 05006KT P6SM SKC
     FM310300 10004KT P6SM SKC
     FM311500 12010KT P6SM BKN200
     FM311900 12010KT P6SM BKN100=

USA.gov is the U.S. government's official web portal to all federal, state and local government web resources and services.